createdAt,value
2017-08-19T00:08:57.000Z,55.774
2017-08-19T00:18:57.000Z,55.715
2017-08-19T00:28:57.000Z,55.633
2017-08-19T00:38:57.000Z,55.639
2017-08-19T00:48:57.000Z,55.538
2017-08-19T00:58:58.000Z,55.51
2017-08-19T01:08:58.000Z,55.504
2017-08-19T01:18:58.000Z,55.435
2017-08-19T01:28:58.000Z,55.387
2017-08-19T01:38:58.000Z,55.295
2017-08-19T01:48:58.000Z,55.237
2017-08-19T01:58:58.000Z,55.265
2017-08-19T02:08:58.000Z,55.154
2017-08-19T02:18:58.000Z,55.138
2017-08-19T02:28:58.000Z,55.145
2017-08-19T02:38:58.000Z,55.119
2017-08-19T02:48:58.000Z,55.036
2017-08-19T02:58:58.000Z,54.956
2017-08-19T03:08:58.000Z,55.006
2017-08-19T03:18:58.000Z,54.815
2017-08-19T03:28:58.000Z,54.975
2017-08-19T03:38:58.000Z,54.883
2017-08-19T03:48:58.000Z,54.662
2017-08-19T03:58:58.000Z,54.657
2017-08-19T04:08:58.000Z,54.533
2017-08-19T04:18:58.000Z,54.561
2017-08-19T04:28:58.000Z,54.536
2017-08-19T04:38:58.000Z,54.359
2017-08-19T04:48:58.000Z,54.247
2017-08-19T04:58:58.000Z,54.147
2017-08-19T05:08:58.000Z,54.233
2017-08-19T05:18:58.000Z,54.044
2017-08-19T05:28:58.000Z,54.076
2017-08-19T05:38:58.000Z,54.03
2017-08-19T05:48:58.000Z,54.008
2017-08-19T05:58:58.000Z,53.911
2017-08-19T06:08:58.000Z,53.878
2017-08-19T06:18:58.000Z,53.826
2017-08-19T06:28:58.000Z,53.631
2017-08-19T06:38:58.000Z,53.366
2017-08-19T06:48:58.000Z,53.25
2017-08-19T06:58:58.000Z,52.937
2017-08-19T07:08:58.000Z,52.777
2017-08-19T07:18:58.000Z,52.636
2017-08-19T07:28:58.000Z,52.593
2017-08-19T07:38:58.000Z,52.591
2017-08-19T07:48:58.000Z,52.556
2017-08-19T07:58:58.000Z,52.192
2017-08-19T08:08:58.000Z,52.002
2017-08-19T08:18:58.000Z,51.97
2017-08-19T08:28:58.000Z,51.958
2017-08-19T08:38:58.000Z,52.086
2017-08-19T08:48:58.000Z,52.164
2017-08-19T08:58:58.000Z,52.212
2017-08-19T09:08:58.000Z,52.014
2017-08-19T09:18:59.000Z,51.59
2017-08-19T09:28:59.000Z,51.541
2017-08-19T09:38:59.000Z,51.546
2017-08-19T09:48:59.000Z,51.15
2017-08-19T09:58:59.000Z,50.964
2017-08-19T10:08:59.000Z,50.637
2017-08-19T10:18:59.000Z,49.892
2017-08-19T10:28:59.000Z,50.01
2017-08-19T10:38:59.000Z,49.521
2017-08-19T10:48:59.000Z,49.57
2017-08-19T10:58:59.000Z,50.132
2017-08-19T11:08:59.000Z,49.963
2017-08-19T11:18:59.000Z,49.75
2017-08-19T11:28:59.000Z,49.134
2017-08-19T11:38:59.000Z,48.715
2017-08-19T11:48:59.000Z,48.711
2017-08-19T11:58:59.000Z,48.783
2017-08-19T12:08:59.000Z,48.564
2017-08-19T12:18:59.000Z,48.808
2017-08-19T12:28:59.000Z,47.749
2017-08-19T12:38:59.000Z,48.281
2017-08-19T12:48:59.000Z,48.482
2017-08-19T12:58:59.000Z,48.713
2017-08-19T13:08:59.000Z,48.749
2017-08-19T13:18:59.000Z,48.653
2017-08-19T13:28:59.000Z,48.87
2017-08-19T13:38:59.000Z,48.78
2017-08-19T13:48:59.000Z,48.657
2017-08-19T13:58:59.000Z,48.986
2017-08-19T14:08:59.000Z,49.245
2017-08-19T14:18:59.000Z,48.696
2017-08-19T14:28:59.000Z,48.285
2017-08-19T14:38:59.000Z,50.191
2017-08-19T14:48:59.000Z,50.382
2017-08-19T14:58:59.000Z,50.062
2017-08-19T15:08:59.000Z,50.095
2017-08-19T15:18:59.000Z,49.887
2017-08-19T15:28:59.000Z,50.604
2017-08-19T15:38:59.000Z,50.069
2017-08-19T15:48:59.000Z,49.979
2017-08-19T15:58:59.000Z,49.833
2017-08-19T16:08:59.000Z,49.589
2017-08-19T16:18:59.000Z,49.303
2017-08-19T16:28:59.000Z,49.226
2017-08-19T16:48:59.000Z,49.702
2017-08-19T16:58:59.000Z,49.958
2017-08-19T17:09:00.000Z,50.05
2017-08-19T17:19:00.000Z,49.8
2017-08-19T17:48:59.000Z,50.101
2017-08-19T17:59:00.000Z,50.224
